createdAt,value
2022-10-30T03:01:30.564Z,19.00
2022-10-30T03:03:58.851Z,19.10
2022-10-30T03:06:26.221Z,18.00
2022-10-30T03:08:53.677Z,18.60
2022-10-30T03:11:22.177Z,18.90
2022-10-30T03:13:50.247Z,18.50
2022-10-30T03:16:37.636Z,18.90
2022-10-30T03:19:22.494Z,18.40
2022-10-30T03:21:50.137Z,17.80
2022-10-30T03:24:17.184Z,18.30
2022-10-30T03:26:45.224Z,18.10
2022-10-30T03:29:12.034Z,16.60
2022-10-30T03:31:39.416Z,17.10
2022-10-30T03:34:42.614Z,17.60
2022-10-30T03:37:09.547Z,17.80
2022-10-30T03:39:54.297Z,17.30
2022-10-30T03:42:21.470Z,16.60
2022-10-30T03:44:49.724Z,17.60
2022-10-30T03:47:34.760Z,16.90
2022-10-30T03:50:02.114Z,16.90
2022-10-30T03:52:46.817Z,18.30
2022-10-30T03:55:13.788Z,18.60
2022-10-30T03:57:58.968Z,16.60
2022-10-30T04:00:26.207Z,17.20
2022-10-30T04:02:55.726Z,16.40
2022-10-30T04:05:41.315Z,16.90
2022-10-30T04:08:12.261Z,17.30
2022-10-30T04:10:43.222Z,16.10
2022-10-30T04:13:13.457Z,16.00
2022-10-30T04:16:03.971Z,16.00
2022-10-30T04:18:34.004Z,17.60
2022-10-30T04:21:01.927Z,16.60
2022-10-30T04:23:46.344Z,17.40
2022-10-30T04:26:30.950Z,16.60
2022-10-30T04:28:58.285Z,16.70
2022-10-30T04:31:25.327Z,16.80
2022-10-30T04:33:52.307Z,16.90
2022-10-30T04:36:36.926Z,17.70
2022-10-30T04:39:21.987Z,16.30
2022-10-30T04:41:49.941Z,16.60
2022-10-30T04:44:20.222Z,16.50
2022-10-30T04:46:48.199Z,17.70
2022-10-30T04:49:15.134Z,18.20
2022-10-30T04:51:42.107Z,17.40
2022-10-30T04:54:28.663Z,17.40
2022-10-30T04:56:55.752Z,17.00
2022-10-30T04:59:40.418Z,18.10
2022-10-30T05:02:07.325Z,17.70
2022-10-30T05:04:34.912Z,17.00
2022-10-30T05:07:02.244Z,18.20
2022-10-30T05:09:29.546Z,17.20
2022-10-30T05:11:59.925Z,16.50
2022-10-30T05:14:31.432Z,16.00
2022-10-30T05:16:58.945Z,16.80
2022-10-30T05:19:26.707Z,17.00
2022-10-30T05:21:55.464Z,17.80
2022-10-30T05:24:23.178Z,17.20
2022-10-30T05:27:07.724Z,18.40
2022-10-30T05:29:35.674Z,17.20
2022-10-30T05:32:02.623Z,17.60
2022-10-30T05:34:38.537Z,18.90
2022-10-30T05:37:05.616Z,17.40
2022-10-30T05:39:32.636Z,16.60
2022-10-30T05:41:59.714Z,17.10
2022-10-30T05:44:59.255Z,16.80
2022-10-30T05:47:22.501Z,17.40
2022-10-30T05:49:52.423Z,17.40
2022-10-30T05:52:21.094Z,16.90
2022-10-30T05:54:49.171Z,18.60
2022-10-30T05:57:21.258Z,17.70
2022-10-30T05:59:48.356Z,18.40
2022-10-30T06:02:15.444Z,19.40
2022-10-30T06:04:42.440Z,17.70
2022-10-30T06:07:12.901Z,17.10
2022-10-30T06:09:40.201Z,18.20
2022-10-30T06:12:25.939Z,16.60
2022-10-30T06:15:13.490Z,17.20
2022-10-30T06:17:40.648Z,17.10
2022-10-30T06:20:28.074Z,16.60
2022-10-30T06:23:13.844Z,16.40
2022-10-30T06:25:50.601Z,16.70
2022-10-30T06:28:42.000Z,18.50
2022-10-30T06:31:10.299Z,16.30
2022-10-30T06:33:38.448Z,16.70
2022-10-30T06:36:22.983Z,15.70
2022-10-30T06:38:50.137Z,17.50
2022-10-30T06:41:19.509Z,16.30
2022-10-30T06:43:46.427Z,18.20
2022-10-30T06:46:27.514Z,17.50
2022-10-30T06:48:58.125Z,17.60
2022-10-30T06:51:26.291Z,17.60
2022-10-30T06:53:54.587Z,16.40
2022-10-30T06:56:57.753Z,16.00
2022-10-30T06:59:51.208Z,16.70
2022-10-30T07:02:27.605Z,17.70
2022-10-30T07:04:58.108Z,17.30
2022-10-30T07:07:25.550Z,16.50
2022-10-30T07:09:53.915Z,17.20
2022-10-30T07:12:28.050Z,15.90
2022-10-30T07:15:00.989Z,17.70
2022-10-30T07:18:08.954Z,16.50
2022-10-30T07:20:37.825Z,16.40
2022-10-30T07:23:05.235Z,16.60
2022-10-30T07:25:32.929Z,16.70
2022-10-30T07:28:40.252Z,16.80
2022-10-30T07:31:42.481Z,17.60
2022-10-30T07:34:36.028Z,16.60
2022-10-30T07:37:20.935Z,15.60
2022-10-30T07:40:00.286Z,16.00
2022-10-30T07:42:48.203Z,16.70
2022-10-30T07:45:34.717Z,15.00
2022-10-30T07:48:20.241Z,16.00
2022-10-30T07:50:57.213Z,15.60
2022-10-30T07:53:24.128Z,15.80
2022-10-30T07:55:51.264Z,14.90
2022-10-30T07:58:41.317Z,16.70
2022-10-30T08:01:34.892Z,16.60
2022-10-30T08:04:14.026Z,15.60
2022-10-30T08:06:42.230Z,14.40
2022-10-30T08:09:26.643Z,15.10
2022-10-30T08:11:53.963Z,15.00
2022-10-30T08:14:21.158Z,13.90
2022-10-30T08:16:48.473Z,14.20
2022-10-30T08:19:15.504Z,14.30
2022-10-30T08:21:42.542Z,13.40
2022-10-30T08:24:13.888Z,15.20
2022-10-30T08:26:42.210Z,14.80
2022-10-30T08:29:10.703Z,16.40
2022-10-30T08:31:38.264Z,15.60
2022-10-30T08:34:23.767Z,15.90
2022-10-30T08:36:55.318Z,15.30
2022-10-30T08:39:23.172Z,14.80
2022-10-30T08:42:21.880Z,13.70
2022-10-30T08:44:49.465Z,14.50
2022-10-30T08:47:35.064Z,14.20
2022-10-30T08:50:02.408Z,14.00
2022-10-30T08:52:50.714Z,14.80
2022-10-30T08:55:21.317Z,15.30
2022-10-30T08:57:48.336Z,15.30
2022-10-30T09:00:16.236Z,14.20
2022-10-30T09:03:02.336Z,15.00
2022-10-30T09:05:48.462Z,15.40
2022-10-30T09:08:18.079Z,15.20
2022-10-30T09:11:35.152Z,14.80
2022-10-30T09:14:02.047Z,13.90
2022-10-30T09:16:28.986Z,14.10
2022-10-30T09:19:18.634Z,12.80
2022-10-30T09:21:46.108Z,14.10
2022-10-30T09:24:13.092Z,13.90
2022-10-30T09:26:40.051Z,14.10
2022-10-30T09:29:27.574Z,14.90
2022-10-30T09:31:54.915Z,14.30
2022-10-30T09:34:41.533Z,15.00
2022-10-30T09:37:20.240Z,14.30
2022-10-30T09:39:49.738Z,13.20
2022-10-30T09:45:45.038Z,14.70
2022-10-30T09:48:35.489Z,13.60
2022-10-30T09:51:19.568Z,13.30
2022-10-30T09:54:03.565Z,14.20
2022-10-30T09:56:39.699Z,13.80
2022-10-30T09:59:16.020Z,14.40
2022-10-30T10:04:27.198Z,14.30
2022-10-30T10:07:21.501Z,14.10
2022-10-30T10:10:22.730Z,13.30
2022-10-30T10:13:31.544Z,14.00
2022-10-30T10:16:00.593Z,13.80
2022-10-30T10:21:15.128Z,12.40
2022-10-30T10:23:49.219Z,12.90
2022-10-30T10:26:26.366Z,12.60
2022-10-30T10:29:08.910Z,13.10
2022-10-30T10:31:47.859Z,12.30
2022-10-30T10:34:36.795Z,12.60
2022-10-30T10:37:32.242Z,12.20
2022-10-30T10:43:10.282Z,12.00
2022-10-30T10:45:48.014Z,11.40
2022-10-30T10:48:46.326Z,10.70
2022-10-30T10:51:35.116Z,11.70
2022-10-30T10:54:05.050Z,10.10
2022-10-30T10:56:52.344Z,9.60
2022-10-30T10:59:42.595Z,10.10
2022-10-30T11:02:30.902Z,10.90
2022-10-30T11:05:07.064Z,9.70
2022-10-30T11:07:39.710Z,9.90
2022-10-30T11:10:26.339Z,8.50
2022-10-30T11:13:14.781Z,7.40
2022-10-30T11:15:51.491Z,7.20
2022-10-30T11:18:36.710Z,6.00
2022-10-30T11:21:23.578Z,5.20
2022-10-30T11:23:51.558Z,6.40
2022-10-30T11:26:33.364Z,6.50
2022-10-30T11:29:03.262Z,6.10
2022-10-30T11:34:32.078Z,6.40
2022-10-30T11:36:59.179Z,6.70
2022-10-30T11:39:27.489Z,6.40
2022-10-30T11:42:00.907Z,5.20
2022-10-30T11:44:32.809Z,4.00
2022-10-30T11:47:00.477Z,4.60
2022-10-30T11:49:32.544Z,4.60
2022-10-30T11:52:00.102Z,4.40
2022-10-30T11:54:29.485Z,4.50
2022-10-30T11:57:23.533Z,4.30
2022-10-30T12:00:15.803Z,4.40
2022-10-30T12:02:46.902Z,4.30
2022-10-30T12:05:34.661Z,5.40
2022-10-30T12:08:20.347Z,5.10
2022-10-30T12:10:58.277Z,4.80
2022-10-30T12:13:27.813Z,3.90
2022-10-30T12:16:09.091Z,5.20
2022-10-30T12:18:40.504Z,3.70
2022-10-30T12:21:09.065Z,4.20
2022-10-30T12:23:54.233Z,3.40
2022-10-30T12:26:21.846Z,4.20
2022-10-30T12:28:56.503Z,3.50
2022-10-30T12:31:30.601Z,3.70
2022-10-30T12:34:13.558Z,4.60
2022-10-30T12:36:48.992Z,4.50
2022-10-30T12:39:23.372Z,4.00
2022-10-30T12:41:57.808Z,3.70
2022-10-30T12:44:29.640Z,3.10
2022-10-30T12:47:02.311Z,3.00
2022-10-30T12:49:51.592Z,3.00
2022-10-30T12:52:40.279Z,3.90
2022-10-30T12:55:17.430Z,4.20
2022-10-30T12:57:50.918Z,4.40
2022-10-30T13:00:21.617Z,3.70
2022-10-30T13:02:56.899Z,4.30
2022-10-30T13:05:31.360Z,6.30
2022-10-30T13:08:07.975Z,6.70
2022-10-30T13:10:40.250Z,4.00
2022-10-30T13:13:17.026Z,3.70
2022-10-30T13:15:49.598Z,3.60
2022-10-30T13:18:21.501Z,4.00
2022-10-30T13:21:02.740Z,4.10
2022-10-30T13:23:43.567Z,3.30
2022-10-30T13:26:22.021Z,2.90
2022-10-30T13:29:04.674Z,3.10
2022-10-30T13:31:42.779Z,2.30
2022-10-30T13:34:34.302Z,2.50
2022-10-30T13:37:10.052Z,2.60
2022-10-30T13:39:55.138Z,2.50
2022-10-30T13:42:48.267Z,3.10
2022-10-30T13:45:41.347Z,3.20
2022-10-30T13:48:19.998Z,3.70
2022-10-30T13:51:07.880Z,3.90
2022-10-30T13:53:44.395Z,3.60
2022-10-30T13:56:16.511Z,4.00
2022-10-30T13:58:52.819Z,3.90
2022-10-30T14:01:48.408Z,4.60
2022-10-30T14:04:20.855Z,4.50
2022-10-30T14:06:54.196Z,3.70
2022-10-30T14:09:31.559Z,4.10
2022-10-30T14:12:01.687Z,3.60
2022-10-30T14:14:49.038Z,3.60
2022-10-30T14:17:17.789Z,4.10
2022-10-30T14:20:19.293Z,4.40
2022-10-30T14:23:06.232Z,4.20
2022-10-30T14:25:33.166Z,4.30
2022-10-30T14:28:00.336Z,4.10
2022-10-30T14:30:29.882Z,4.40
2022-10-30T14:33:41.427Z,4.60
2022-10-30T14:36:20.078Z,4.70
2022-10-30T14:38:55.840Z,4.50
2022-10-30T14:41:52.279Z,4.40
2022-10-30T14:44:48.067Z,4.80
2022-10-30T14:47:46.234Z,4.40
2022-10-30T14:50:54.319Z,4.30
2022-10-30T14:53:49.573Z,4.60
2022-10-30T14:56:42.655Z,4.50
2022-10-30T14:59:23.620Z,5.10
2022-10-30T15:01:56.590Z,4.60
2022-10-30T15:04:54.289Z,5.40
2022-10-30T15:07:28.894Z,4.90
2022-10-30T15:10:13.047Z,4.90
2022-10-30T15:12:59.657Z,5.40
2022-10-30T15:15:29.668Z,6.20
2022-10-30T15:17:59.840Z,6.40
2022-10-30T15:20:31.511Z,6.60
2022-10-30T15:23:02.861Z,6.10
2022-10-30T15:25:34.787Z,6.20
2022-10-30T15:28:22.481Z,5.80
2022-10-30T15:31:16.272Z,5.50
2022-10-30T15:33:43.639Z,6.60
2022-10-30T15:36:20.282Z,6.80
2022-10-30T15:39:03.940Z,6.90
2022-10-30T15:41:31.297Z,6.70
2022-10-30T15:44:19.096Z,7.70
2022-10-30T15:46:49.818Z,7.80
2022-10-30T15:49:22.299Z,7.30
2022-10-30T15:51:50.152Z,7.60
2022-10-30T15:54:21.312Z,7.10
2022-10-30T15:57:26.959Z,7.50
2022-10-30T15:59:39.285Z,7.30
2022-10-30T16:02:21.402Z,7.90
2022-10-30T16:05:02.139Z,8.30
2022-10-30T16:07:32.511Z,9.20
2022-10-30T16:10:19.562Z,8.50
2022-10-30T16:12:47.221Z,8.10
2022-10-30T16:15:27.437Z,8.00
2022-10-30T16:18:06.000Z,8.40
2022-10-30T16:20:52.423Z,8.30
2022-10-30T16:23:27.639Z,9.20
2022-10-30T16:25:59.033Z,8.90
2022-10-30T16:28:31.747Z,8.90
2022-10-30T16:31:20.203Z,8.90
2022-10-30T16:33:47.772Z,10.20
2022-10-30T16:36:33.128Z,9.10
2022-10-30T16:39:00.480Z,9.60
2022-10-30T16:41:29.455Z,10.20
2022-10-30T16:44:14.827Z,10.20
2022-10-30T16:46:47.095Z,10.20
2022-10-30T16:49:20.138Z,9.20
2022-10-30T16:52:07.369Z,9.50
2022-10-30T16:55:00.809Z,9.20
2022-10-30T16:57:49.130Z,9.00
2022-10-30T17:00:25.912Z,9.20
2022-10-30T17:02:55.879Z,9.30
2022-10-30T17:05:27.626Z,8.80
2022-10-30T17:08:00.308Z,9.60
2022-10-30T17:10:37.403Z,9.10
2022-10-30T17:13:34.903Z,9.70
2022-10-30T17:16:25.956Z,10.20
2022-10-30T17:18:53.387Z,10.90
2022-10-30T17:21:23.107Z,10.00
2022-10-30T17:23:51.709Z,9.70
2022-10-30T17:26:19.446Z,8.60
2022-10-30T17:28:50.765Z,9.90
2022-10-30T17:31:31.191Z,9.30
2022-10-30T17:34:20.424Z,10.20
2022-10-30T17:36:48.359Z,10.20
2022-10-30T17:39:32.885Z,10.30
2022-10-30T17:42:00.442Z,10.10
2022-10-30T17:44:29.942Z,10.40
2022-10-30T17:46:56.832Z,11.90
2022-10-30T17:49:28.871Z,13.00
2022-10-30T17:51:55.910Z,12.20
2022-10-30T17:54:23.182Z,12.50
2022-10-30T17:57:07.968Z,12.40
2022-10-30T17:59:34.907Z,11.80
2022-10-30T18:02:21.435Z,12.20
2022-10-30T18:04:49.510Z,12.10
2022-10-30T18:07:17.895Z,12.60
2022-10-30T18:10:02.536Z,11.70
2022-10-30T18:12:47.100Z,11.90
2022-10-30T18:15:30.492Z,11.80
2022-10-30T18:17:57.801Z,12.20
2022-10-30T18:20:25.001Z,12.70
2022-10-30T18:22:52.217Z,12.10
2022-10-30T18:25:25.736Z,12.70
2022-10-30T18:27:53.295Z,11.30
2022-10-30T18:30:20.995Z,11.20
2022-10-30T18:32:48.723Z,10.90
2022-10-30T18:35:26.911Z,11.30
2022-10-30T18:37:54.020Z,12.20
2022-10-30T18:40:38.793Z,11.40
2022-10-30T18:43:05.636Z,11.60
2022-10-30T18:45:50.112Z,15.50
2022-10-30T18:48:17.042Z,14.40
2022-10-30T18:50:44.123Z,14.20
2022-10-30T18:53:34.215Z,12.80
2022-10-30T18:56:20.553Z,12.00
2022-10-30T18:58:47.758Z,11.50
2022-10-30T19:01:15.458Z,13.50
2022-10-30T19:03:43.518Z,13.20
2022-10-30T19:06:13.500Z,14.20
2022-10-30T19:08:40.771Z,13.00
2022-10-30T19:11:08.212Z,13.90
2022-10-30T19:13:35.684Z,12.70
2022-10-30T19:16:02.538Z,11.60
2022-10-30T19:18:47.602Z,13.10
2022-10-30T19:21:18.187Z,11.80
2022-10-30T19:23:45.494Z,11.00
2022-10-30T19:26:30.012Z,11.10
2022-10-30T19:28:57.184Z,12.50
2022-10-30T19:31:23.992Z,12.20
2022-10-30T19:33:56.181Z,11.60
2022-10-30T19:36:31.922Z,12.00
2022-10-30T19:39:04.220Z,11.30
2022-10-30T19:41:35.352Z,11.80
2022-10-30T19:44:02.217Z,11.60
2022-10-30T19:46:46.956Z,10.50
2022-10-30T19:49:19.135Z,11.30
2022-10-30T19:52:04.019Z,10.90
2022-10-30T19:54:31.314Z,11.80
2022-10-30T19:59:43.567Z,12.50
2022-10-30T20:02:12.574Z,10.80
2022-10-30T20:04:39.531Z,10.90
2022-10-30T20:07:06.396Z,10.50
2022-10-30T20:09:33.614Z,10.50
2022-10-30T20:12:18.048Z,9.70
2022-10-30T20:14:44.883Z,10.80
2022-10-30T20:17:13.439Z,11.00
2022-10-30T20:19:41.884Z,11.50
2022-10-30T20:22:11.283Z,10.80
2022-10-30T20:24:38.130Z,11.40
2022-10-30T20:27:05.065Z,11.80
2022-10-30T20:29:49.390Z,10.70
2022-10-30T20:32:34.236Z,10.70
2022-10-30T20:35:01.218Z,9.90
2022-10-30T20:37:28.254Z,10.60
2022-10-30T20:40:18.437Z,12.90
2022-10-30T20:42:46.223Z,13.70
2022-10-30T20:45:18.287Z,16.90
2022-10-30T20:47:45.708Z,17.10
2022-10-30T20:50:13.574Z,19.20
2022-10-30T20:52:40.799Z,14.80
2022-10-30T20:55:09.884Z,13.30
2022-10-30T21:00:05.188Z,11.60
2022-10-30T21:02:32.172Z,10.70
2022-10-30T21:05:11.536Z,11.00
2022-10-30T21:07:44.381Z,12.10
2022-10-30T21:10:11.708Z,11.00
2022-10-30T21:12:38.633Z,11.20
2022-10-30T21:15:06.150Z,12.30
2022-10-30T21:17:33.175Z,11.20
2022-10-30T21:20:00.098Z,11.10
2022-10-30T21:22:27.093Z,11.70
2022-10-30T21:24:53.938Z,11.40
2022-10-30T21:27:20.816Z,11.20
2022-10-30T21:29:47.866Z,10.60
2022-10-30T21:32:14.848Z,10.50
2022-10-30T21:34:41.706Z,10.20
2022-10-30T21:37:08.509Z,10.60
2022-10-30T21:39:35.417Z,10.20
2022-10-30T21:42:02.339Z,10.60
2022-10-30T21:44:29.237Z,10.40
2022-10-30T21:47:14.764Z,9.90
2022-10-30T21:49:41.599Z,11.00
2022-10-30T21:52:11.309Z,10.00
2022-10-30T21:54:40.319Z,9.00
2022-10-30T21:57:07.311Z,10.10
2022-10-30T21:59:34.176Z,10.00
2022-10-30T22:02:01.008Z,9.70
2022-10-30T22:04:29.518Z,10.90
2022-10-30T22:06:56.566Z,10.10
2022-10-30T22:09:40.948Z,9.30
2022-10-30T22:12:08.695Z,11.10
2022-10-30T22:14:35.735Z,10.20
2022-10-30T22:17:02.620Z,10.30
2022-10-30T22:19:29.465Z,9.90
2022-10-30T22:22:14.113Z,9.40
2022-10-30T22:24:41.075Z,9.50
2022-10-30T22:27:25.516Z,10.00
2022-10-30T22:29:52.278Z,9.90
2022-10-30T22:32:37.274Z,9.80
2022-10-30T22:35:21.840Z,9.80
2022-10-30T22:38:06.268Z,10.20
2022-10-30T22:40:33.180Z,10.10
2022-10-30T22:43:00.282Z,10.20
2022-10-30T22:45:27.755Z,12.10
2022-10-30T22:48:12.492Z,11.90
2022-10-30T22:50:39.275Z,10.70
2022-10-30T22:53:06.086Z,10.90
2022-10-30T22:55:32.920Z,10.50
2022-10-30T22:58:00.634Z,9.90
2022-10-30T23:00:29.270Z,9.90
2022-10-30T23:02:56.677Z,10.30
2022-10-30T23:05:23.687Z,11.00
2022-10-30T23:07:51.648Z,10.70
2022-10-30T23:10:18.765Z,11.10
2022-10-30T23:12:45.548Z,9.70
2022-10-30T23:15:13.791Z,10.30
2022-10-30T23:17:40.577Z,10.50
2022-10-30T23:20:09.891Z,10.10
2022-10-30T23:22:36.796Z,9.90
2022-10-30T23:25:03.695Z,10.20
2022-10-30T23:27:30.512Z,10.20
2022-10-30T23:29:57.844Z,8.80
2022-10-30T23:32:24.673Z,8.90
2022-10-30T23:34:51.438Z,10.00
2022-10-30T23:37:18.287Z,9.30
2022-10-30T23:39:45.134Z,9.30
2022-10-30T23:42:12.113Z,8.60
2022-10-30T23:44:39.004Z,8.80
2022-10-30T23:47:06.148Z,9.20
2022-10-30T23:49:34.161Z,9.70
2022-10-30T23:52:01.359Z,10.20
2022-10-30T23:54:28.164Z,11.00
2022-10-30T23:56:55.099Z,11.10
2022-10-30T23:59:22.139Z,11.10
